createdAt,value
2023-03-05T00:00:33.278Z,99.90
2023-03-05T00:02:47.736Z,99.90
2023-03-05T00:04:50.416Z,99.90
2023-03-05T00:06:52.848Z,99.90
2023-03-05T00:08:58.315Z,99.90
2023-03-05T00:11:02.901Z,99.90
2023-03-05T00:13:06.196Z,99.90
2023-03-05T00:15:13.387Z,99.90
2023-03-05T00:17:23.215Z,99.90
2023-03-05T00:19:28.528Z,99.90
2023-03-05T00:21:32.974Z,99.90
2023-03-05T00:23:35.177Z,99.90
2023-03-05T00:25:37.617Z,99.90
2023-03-05T00:27:40.112Z,99.90
2023-03-05T00:29:42.659Z,99.90
2023-03-05T00:31:46.286Z,99.90
2023-03-05T00:33:52.652Z,99.90
2023-03-05T00:35:58.715Z,99.90
2023-03-05T00:38:01.382Z,99.90
2023-03-05T00:40:05.218Z,99.90
2023-03-05T00:42:08.713Z,99.90
2023-03-05T00:44:11.414Z,99.90
2023-03-05T00:46:14.435Z,99.90
2023-03-05T00:48:17.034Z,99.90
2023-03-05T00:50:19.891Z,99.90
2023-03-05T00:52:25.173Z,99.90
2023-03-05T00:54:27.620Z,99.90
2023-03-05T00:56:30.379Z,99.90
2023-03-05T00:58:32.773Z,99.90
2023-03-05T01:00:35.591Z,99.90
2023-03-05T01:02:44.134Z,99.90
2023-03-05T01:04:47.413Z,99.90
2023-03-05T01:06:51.040Z,99.90
2023-03-05T01:08:56.784Z,99.90
2023-03-05T01:10:59.449Z,99.90
2023-03-05T01:13:02.122Z,99.90
2023-03-05T01:15:06.257Z,99.90
2023-03-05T01:17:10.888Z,99.90
2023-03-05T01:19:15.948Z,99.90
2023-03-05T01:21:18.620Z,99.90
2023-03-05T01:23:21.650Z,99.90
2023-03-05T01:25:27.231Z,99.90
2023-03-05T01:27:29.906Z,99.90
2023-03-05T01:29:32.356Z,99.90
2023-03-05T01:31:35.023Z,99.90
2023-03-05T01:33:37.614Z,99.90
2023-03-05T01:35:40.126Z,99.90
2023-03-05T01:37:42.609Z,99.90
2023-03-05T01:39:45.451Z,99.90
2023-03-05T01:41:50.428Z,99.90
2023-03-05T01:43:55.998Z,99.90
2023-03-05T01:46:27.060Z,99.90
2023-03-05T01:48:30.323Z,99.90
2023-03-05T01:50:33.896Z,99.90
2023-03-05T01:52:38.652Z,99.90
2023-03-05T01:54:53.471Z,99.90
2023-03-05T01:57:06.710Z,99.90
2023-03-05T01:59:10.618Z,99.90
2023-03-05T02:01:13.164Z,99.90
2023-03-05T02:03:16.564Z,99.90
2023-03-05T02:05:27.600Z,99.90
2023-03-05T02:07:31.432Z,99.90
2023-03-05T02:09:33.976Z,99.90
2023-03-05T02:11:40.440Z,99.90
2023-03-05T02:13:45.920Z,99.90
2023-03-05T02:15:49.850Z,99.90
2023-03-05T02:17:53.264Z,99.90
2023-03-05T02:20:02.643Z,99.90
2023-03-05T02:22:14.968Z,99.90
2023-03-05T02:24:20.003Z,99.90
2023-03-05T02:26:24.459Z,99.90
2023-03-05T02:28:39.054Z,99.90
2023-03-05T02:30:44.731Z,99.90
2023-03-05T02:32:47.319Z,99.90
2023-03-05T02:34:50.431Z,99.90
2023-03-05T02:36:55.677Z,99.90
2023-03-05T02:39:02.974Z,99.90
2023-03-05T02:41:06.873Z,99.90
2023-03-05T02:43:10.987Z,99.90
2023-03-05T02:45:13.979Z,99.90
2023-03-05T02:47:16.624Z,99.90
2023-03-05T02:49:19.436Z,99.90
2023-03-05T02:51:22.038Z,99.90
2023-03-05T02:53:32.249Z,99.90
2023-03-05T02:55:37.798Z,99.90
2023-03-05T02:57:41.125Z,99.90
2023-03-05T02:59:43.585Z,99.90
2023-03-05T03:01:46.143Z,99.90
2023-03-05T03:03:49.139Z,99.90
2023-03-05T03:05:51.710Z,99.90
2023-03-05T03:07:54.290Z,99.90
2023-03-05T03:09:56.855Z,99.90
2023-03-05T03:12:02.960Z,99.90
2023-03-05T03:14:05.622Z,99.90
2023-03-05T03:16:14.185Z,99.90
2023-03-05T03:18:17.372Z,99.90
2023-03-05T03:20:20.310Z,99.90
2023-03-05T03:22:31.594Z,99.90
2023-03-05T03:24:35.294Z,99.90
2023-03-05T03:26:37.788Z,99.90
2023-03-05T03:28:43.203Z,99.90
2023-03-05T03:30:45.774Z,99.90
2023-03-05T03:32:48.496Z,99.90
2023-03-05T03:34:53.842Z,99.90
2023-03-05T03:36:56.315Z,99.90
2023-03-05T03:38:58.798Z,99.90
2023-03-05T03:41:01.537Z,99.90
2023-03-05T03:43:04.133Z,99.90
2023-03-05T03:45:10.782Z,99.90
2023-03-05T03:47:13.575Z,99.90
2023-03-05T03:49:17.827Z,99.90
2023-03-05T03:51:20.668Z,99.90
2023-03-05T03:53:23.248Z,99.90
2023-03-05T03:55:25.968Z,99.90
2023-03-05T03:57:30.269Z,99.90
2023-03-05T03:59:32.636Z,99.90
2023-03-05T04:01:38.224Z,99.90
2023-03-05T04:03:40.886Z,99.90
2023-03-05T04:05:43.647Z,99.90
2023-03-05T04:07:45.981Z,99.90
2023-03-05T04:09:48.559Z,99.90
2023-03-05T04:11:50.963Z,99.90
2023-03-05T04:13:53.369Z,99.90
2023-03-05T04:15:56.507Z,99.90
2023-03-05T04:18:01.524Z,99.90
2023-03-05T04:20:07.049Z,99.90
2023-03-05T04:22:11.032Z,99.90
2023-03-05T04:24:13.423Z,99.90
2023-03-05T04:26:15.797Z,99.90
2023-03-05T04:28:18.125Z,99.90
2023-03-05T04:30:23.567Z,99.90
2023-03-05T04:32:26.642Z,99.90
2023-03-05T04:34:32.953Z,99.90
2023-03-05T04:36:40.132Z,99.90
2023-03-05T04:38:42.912Z,99.90
2023-03-05T04:40:46.373Z,99.90
2023-03-05T04:43:01.483Z,99.90
2023-03-05T04:45:04.806Z,99.90
2023-03-05T04:47:07.392Z,99.90
2023-03-05T04:49:13.678Z,99.90
2023-03-05T04:51:18.722Z,99.90
2023-03-05T04:53:21.205Z,99.90
2023-03-05T04:55:23.773Z,99.90
2023-03-05T04:57:26.232Z,99.90
2023-03-05T04:59:28.559Z,99.90
2023-03-05T05:01:31.043Z,99.90
2023-03-05T05:03:33.635Z,99.90
2023-03-05T05:05:36.172Z,99.90
2023-03-05T05:07:42.222Z,99.90
2023-03-05T05:09:44.743Z,99.90
2023-03-05T05:11:47.470Z,99.90
2023-03-05T05:13:51.970Z,99.90
2023-03-05T05:15:54.784Z,99.90
2023-03-05T05:17:57.454Z,99.90
2023-03-05T05:20:00.188Z,99.90
2023-03-05T05:22:03.413Z,99.90
2023-03-05T05:24:15.574Z,99.90
2023-03-05T05:26:18.152Z,99.90
2023-03-05T05:28:20.728Z,99.90
2023-03-05T05:30:23.267Z,99.90
2023-03-05T05:32:26.064Z,99.90
2023-03-05T05:34:28.675Z,99.90
2023-03-05T05:36:31.357Z,99.90
2023-03-05T05:38:34.897Z,99.90
2023-03-05T05:40:40.746Z,99.90
2023-03-05T05:42:43.291Z,99.90
2023-03-05T05:44:47.687Z,99.90
2023-03-05T05:46:50.233Z,99.90
2023-03-05T05:48:52.752Z,99.90
2023-03-05T05:50:58.141Z,99.90
2023-03-05T05:53:00.468Z,99.90
2023-03-05T05:55:03.538Z,99.90
2023-03-05T05:57:08.874Z,99.90
2023-03-05T05:59:11.670Z,99.90
2023-03-05T06:01:18.792Z,99.90
2023-03-05T06:03:24.289Z,99.90
2023-03-05T06:05:27.056Z,99.90
2023-03-05T06:07:29.535Z,99.90
2023-03-05T06:09:32.056Z,99.90
2023-03-05T06:11:34.567Z,99.90
2023-03-05T06:13:39.996Z,99.90
2023-03-05T06:15:42.640Z,99.90
2023-03-05T06:17:45.364Z,99.90
2023-03-05T06:19:48.161Z,99.90
2023-03-05T06:21:50.740Z,99.90
2023-03-05T06:23:54.428Z,99.90
2023-03-05T06:26:00.438Z,99.90
2023-03-05T06:28:02.797Z,99.90
2023-03-05T06:30:10.766Z,99.90
2023-03-05T06:32:13.416Z,99.90
2023-03-05T06:34:16.209Z,99.90
2023-03-05T06:36:20.820Z,99.90
2023-03-05T06:38:23.475Z,99.90
2023-03-05T06:40:26.210Z,99.90
2023-03-05T06:42:28.647Z,99.90
2023-03-05T06:44:31.219Z,99.90
2023-03-05T06:46:39.995Z,99.90
2023-03-05T06:48:43.413Z,99.90
2023-03-05T06:50:48.683Z,99.90
2023-03-05T06:52:51.424Z,99.90
2023-03-05T06:54:55.922Z,99.90
2023-03-05T06:56:58.086Z,99.90
2023-03-05T06:59:00.717Z,99.90
2023-03-05T07:01:06.321Z,99.90
2023-03-05T07:03:11.732Z,99.90
2023-03-05T07:05:14.287Z,99.90
2023-03-05T07:07:17.242Z,99.90
2023-03-05T07:09:19.991Z,99.90
2023-03-05T07:11:23.248Z,99.90
2023-03-05T07:13:26.860Z,99.90
2023-03-05T07:15:29.359Z,99.90
2023-03-05T07:17:31.903Z,99.90
2023-03-05T07:19:42.368Z,99.90
2023-03-05T07:21:45.063Z,99.90
2023-03-05T07:23:47.852Z,99.90
2023-03-05T07:25:51.105Z,99.90
2023-03-05T07:27:53.625Z,99.90
2023-03-05T07:29:56.273Z,99.90
2023-03-05T07:32:01.610Z,99.90
2023-03-05T07:34:04.911Z,99.90
2023-03-05T07:36:12.052Z,99.90
2023-03-05T07:38:14.390Z,99.90
2023-03-05T07:40:17.690Z,99.90
2023-03-05T07:42:20.257Z,99.90
2023-03-05T07:44:30.581Z,99.90
2023-03-05T07:46:34.530Z,99.90
2023-03-05T07:48:37.837Z,99.90
2023-03-05T07:50:40.552Z,99.90
2023-03-05T07:52:45.737Z,99.90
2023-03-05T07:54:51.574Z,99.90
2023-03-05T07:56:55.474Z,99.90
2023-03-05T07:58:57.925Z,99.90
2023-03-05T08:01:00.450Z,99.90
2023-03-05T08:03:03.469Z,99.90
2023-03-05T08:05:19.105Z,99.90
2023-03-05T08:07:26.187Z,99.90
2023-03-05T08:09:31.453Z,99.90
2023-03-05T08:11:34.161Z,99.90
2023-03-05T08:13:37.667Z,99.90
2023-03-05T08:15:40.350Z,99.90
2023-03-05T08:17:56.863Z,99.90
2023-03-05T08:20:00.376Z,99.90
2023-03-05T08:22:03.645Z,99.90
2023-03-05T08:24:08.718Z,99.90
2023-03-05T08:26:18.077Z,99.90
2023-03-05T08:28:20.806Z,99.90
2023-03-05T08:30:30.730Z,99.90
2023-03-05T08:32:33.202Z,99.90
2023-03-05T08:34:35.596Z,99.90
2023-03-05T08:36:38.142Z,99.90
2023-03-05T08:38:42.350Z,99.90
2023-03-05T08:40:44.764Z,99.90
2023-03-05T08:42:52.032Z,99.90
2023-03-05T08:44:54.457Z,99.90
2023-03-05T08:47:01.085Z,99.90
2023-03-05T08:49:07.923Z,99.90
2023-03-05T08:51:15.624Z,99.90
2023-03-05T08:53:17.999Z,99.90
2023-03-05T08:55:20.674Z,99.90
2023-03-05T08:57:23.096Z,99.90
2023-03-05T08:59:28.093Z,99.90
2023-03-05T09:01:32.001Z,99.90
2023-03-05T09:03:34.646Z,99.90
2023-03-05T09:05:39.099Z,99.90
2023-03-05T09:07:41.837Z,99.90
2023-03-05T09:09:44.505Z,99.90
2023-03-05T09:11:47.089Z,99.90
2023-03-05T09:13:49.568Z,99.90
2023-03-05T09:16:00.010Z,99.90
2023-03-05T09:18:02.814Z,99.90
2023-03-05T09:20:11.830Z,99.90
2023-03-05T09:22:14.191Z,99.90
2023-03-05T09:24:16.613Z,99.90
2023-03-05T09:26:20.383Z,99.90
2023-03-05T09:28:22.870Z,99.90
2023-03-05T09:30:25.487Z,99.90
2023-03-05T09:32:30.707Z,99.90
2023-03-05T09:34:34.700Z,99.90
2023-03-05T09:36:37.110Z,99.90
2023-03-05T09:38:40.940Z,99.90
2023-03-05T09:40:50.007Z,99.90
2023-03-05T09:43:05.530Z,99.90
2023-03-05T09:45:18.408Z,99.90
2023-03-05T09:47:36.315Z,99.90
2023-03-05T09:49:51.042Z,99.90
2023-03-05T09:52:03.556Z,99.90
2023-03-05T09:54:11.016Z,99.90
2023-03-05T09:56:16.716Z,99.90
2023-03-05T09:58:26.188Z,99.90
2023-03-05T10:00:35.963Z,99.90
2023-03-05T10:02:49.239Z,99.90
2023-03-05T10:04:58.737Z,99.90
2023-03-05T10:07:08.984Z,99.90
2023-03-05T10:09:15.905Z,99.90
2023-03-05T10:11:38.220Z,99.90
2023-03-05T10:13:45.330Z,99.90
2023-03-05T10:15:58.802Z,99.90
2023-03-05T10:18:18.112Z,99.90
2023-03-05T10:20:37.361Z,99.90
2023-03-05T10:22:56.476Z,99.90
2023-03-05T10:25:17.277Z,99.90
2023-03-05T10:27:31.941Z,99.90
2023-03-05T10:30:05.064Z,99.90
2023-03-05T10:32:17.906Z,99.90
2023-03-05T10:34:33.835Z,99.90
2023-03-05T10:36:49.363Z,99.90
2023-03-05T10:39:08.538Z,99.90
2023-03-05T10:41:21.260Z,99.90
2023-03-05T10:43:49.238Z,99.90
2023-03-05T10:45:54.074Z,99.90
2023-03-05T10:48:02.256Z,99.90
2023-03-05T10:50:17.797Z,99.90
2023-03-05T10:52:23.984Z,99.90
2023-03-05T10:54:31.361Z,99.90
2023-03-05T10:56:35.099Z,99.90
2023-03-05T10:58:37.674Z,99.90
2023-03-05T11:01:02.486Z,99.90
2023-03-05T11:03:07.350Z,99.90
2023-03-05T11:05:51.566Z,99.90
2023-03-05T11:07:54.546Z,99.90
2023-03-05T11:10:21.836Z,99.90
2023-03-05T11:12:27.488Z,99.90
2023-03-05T11:14:33.284Z,99.90
2023-03-05T11:16:47.059Z,99.90
2023-03-05T11:18:49.864Z,99.90
2023-03-05T11:21:09.727Z,99.90
2023-03-05T11:23:14.378Z,99.90
2023-03-05T11:25:21.551Z,99.90
2023-03-05T11:27:31.382Z,99.90
2023-03-05T11:29:34.918Z,99.90
2023-03-05T11:31:37.416Z,99.90
2023-03-05T11:33:39.919Z,99.90
2023-03-05T11:35:43.989Z,99.90
2023-03-05T11:38:00.824Z,99.90
2023-03-05T11:40:18.126Z,99.90
2023-03-05T11:42:25.267Z,99.90
2023-03-05T11:44:39.464Z,99.90
2023-03-05T11:46:44.812Z,99.90
2023-03-05T11:48:47.919Z,99.90
2023-03-05T11:50:54.970Z,99.90
2023-03-05T11:53:11.609Z,99.90
2023-03-05T11:55:18.403Z,99.90
2023-03-05T11:57:23.968Z,99.90
2023-03-05T11:59:30.974Z,99.90
2023-03-05T12:01:36.352Z,99.90
2023-03-05T12:03:39.513Z,99.90
2023-03-05T12:05:45.895Z,99.40
2023-03-05T12:07:51.718Z,99.90
2023-03-05T12:09:56.921Z,99.90
2023-03-05T12:12:06.169Z,99.90
2023-03-05T12:14:19.443Z,99.90
2023-03-05T12:16:26.446Z,99.90
2023-03-05T12:18:38.582Z,99.90
2023-03-05T12:20:54.310Z,99.90
2023-03-05T12:22:57.541Z,99.90
2023-03-05T12:25:26.551Z,99.90
2023-03-05T12:27:35.117Z,99.90
2023-03-05T12:29:43.216Z,99.90
2023-03-05T12:31:45.945Z,99.90
2023-03-05T12:33:54.118Z,99.90
2023-03-05T12:36:36.781Z,99.90
2023-03-05T12:38:39.502Z,96.40
2023-03-05T12:40:45.070Z,99.10
2023-03-05T12:42:53.768Z,99.90
2023-03-05T12:45:23.720Z,99.90
2023-03-05T12:47:26.254Z,99.90
2023-03-05T12:49:30.063Z,99.90
2023-03-05T12:51:39.010Z,99.90
2023-03-05T12:53:41.482Z,99.90
2023-03-05T12:55:56.425Z,99.90
2023-03-05T12:58:04.215Z,99.90
2023-03-05T13:00:12.051Z,99.90
2023-03-05T13:02:26.573Z,99.90
2023-03-05T13:04:31.754Z,99.90
2023-03-05T13:06:35.793Z,99.90
2023-03-05T13:08:38.539Z,99.90
2023-03-05T13:10:41.016Z,99.90
2023-03-05T13:13:06.012Z,99.90
2023-03-05T13:15:15.553Z,99.90
2023-03-05T13:17:41.144Z,99.90
2023-03-05T13:19:43.746Z,99.90
2023-03-05T13:21:46.163Z,99.90
2023-03-05T13:23:50.377Z,99.90
2023-03-05T13:26:00.175Z,99.90
2023-03-05T13:28:12.586Z,99.90
2023-03-05T13:30:23.389Z,99.90
2023-03-05T13:32:28.443Z,99.90
2023-03-05T13:34:46.133Z,99.90
2023-03-05T13:36:56.229Z,99.90
2023-03-05T13:38:59.869Z,99.90
2023-03-05T13:41:05.937Z,99.90
2023-03-05T13:43:20.839Z,99.90
2023-03-05T13:45:25.248Z,99.90
2023-03-05T13:47:29.394Z,99.90
2023-03-05T13:49:32.749Z,99.90
2023-03-05T13:51:46.070Z,99.90
2023-03-05T13:53:49.719Z,99.90
2023-03-05T13:55:58.879Z,99.90
2023-03-05T13:58:01.630Z,99.90
2023-03-05T14:00:25.454Z,99.90
2023-03-05T14:02:31.246Z,99.90
2023-03-05T14:04:37.614Z,99.90
2023-03-05T14:06:46.507Z,99.90
2023-03-05T14:08:53.963Z,99.90
2023-03-05T14:11:14.534Z,99.90
2023-03-05T14:13:19.859Z,99.90
2023-03-05T14:15:26.760Z,99.90
2023-03-05T14:17:38.695Z,99.90
2023-03-05T14:19:41.163Z,99.90
2023-03-05T14:21:48.203Z,99.90
2023-03-05T14:23:53.054Z,99.90
2023-03-05T14:26:28.635Z,96.80
2023-03-05T14:28:33.985Z,96.40
2023-03-05T14:30:50.524Z,95.30
2023-03-05T14:32:55.913Z,95.70
2023-03-05T14:35:00.159Z,95.60
2023-03-05T14:37:05.322Z,97.00
2023-03-05T14:39:30.866Z,97.20
2023-03-05T14:41:37.079Z,97.50
2023-03-05T14:43:47.290Z,98.60
2023-03-05T14:45:52.441Z,99.40
2023-03-05T14:48:10.942Z,99.90
2023-03-05T14:50:17.078Z,99.90
2023-03-05T14:52:21.567Z,99.90
2023-03-05T14:54:31.789Z,99.90
2023-03-05T14:56:34.758Z,99.90
2023-03-05T14:58:41.756Z,99.90
2023-03-05T15:00:51.758Z,99.90
2023-03-05T15:02:55.169Z,99.90
2023-03-05T15:05:00.542Z,99.90
2023-03-05T15:07:03.053Z,99.90
2023-03-05T15:09:06.402Z,99.90
2023-03-05T15:11:16.876Z,99.90
2023-03-05T15:13:20.646Z,99.90
2023-03-05T15:15:23.693Z,99.90
2023-03-05T15:17:37.364Z,99.90
2023-03-05T15:19:39.836Z,99.90
2023-03-05T15:21:42.551Z,99.90
2023-03-05T15:23:45.433Z,99.90
2023-03-05T15:25:55.262Z,99.90
2023-03-05T15:27:57.679Z,99.90
2023-03-05T15:30:01.011Z,99.90
2023-03-05T15:32:05.625Z,99.90
2023-03-05T15:34:10.788Z,99.90
2023-03-05T15:36:13.775Z,99.90
2023-03-05T15:38:16.301Z,99.90
2023-03-05T15:40:19.802Z,99.90
2023-03-05T15:42:22.194Z,99.90
2023-03-05T15:44:24.668Z,99.90
2023-03-05T15:46:27.308Z,99.90
2023-03-05T15:48:29.907Z,99.90
2023-03-05T15:50:35.111Z,99.90
2023-03-05T15:52:37.499Z,99.90
2023-03-05T15:54:40.160Z,99.90
2023-03-05T15:56:42.657Z,99.90
2023-03-05T15:58:45.161Z,99.90
2023-03-05T16:00:49.138Z,99.90
2023-03-05T16:02:51.712Z,99.90
2023-03-05T16:04:54.054Z,99.90
2023-03-05T16:07:03.049Z,99.90
2023-03-05T16:09:05.801Z,99.90
2023-03-05T16:11:08.670Z,99.90
2023-03-05T16:13:15.327Z,99.90
2023-03-05T16:15:20.468Z,99.90
2023-03-05T16:17:24.016Z,99.90
2023-03-05T16:19:30.582Z,99.90
2023-03-05T16:21:33.159Z,99.90
2023-03-05T16:23:45.662Z,99.90
2023-03-05T16:25:48.131Z,99.90
2023-03-05T16:27:50.817Z,99.90
2023-03-05T16:29:53.404Z,99.90
2023-03-05T16:31:56.446Z,99.90
2023-03-05T16:33:58.915Z,99.90
2023-03-05T16:36:22.257Z,99.90
2023-03-05T16:38:24.724Z,99.90
2023-03-05T16:40:56.644Z,99.90
2023-03-05T16:42:53.768Z,99.90
2023-03-05T16:44:56.834Z,99.90
2023-03-05T16:46:59.303Z,99.90
2023-03-05T16:49:01.664Z,99.90
2023-03-05T16:51:04.902Z,99.90
2023-03-05T16:53:07.651Z,99.90
2023-03-05T16:55:10.654Z,99.90
2023-03-05T16:57:16.287Z,99.90
2023-03-05T16:59:18.758Z,99.90
2023-03-05T17:01:21.462Z,99.90
2023-03-05T17:03:23.945Z,99.90
2023-03-05T17:05:28.219Z,99.90
2023-03-05T17:07:30.521Z,99.90
2023-03-05T17:09:33.165Z,99.90
2023-03-05T17:11:35.532Z,99.90
2023-03-05T17:13:41.682Z,99.90
2023-03-05T17:18:06.424Z,99.90
2023-03-05T17:20:11.115Z,99.90
2023-03-05T17:22:13.424Z,99.90
2023-03-05T17:24:15.777Z,99.90
2023-03-05T17:26:19.826Z,99.90
2023-03-05T17:28:22.335Z,99.90
2023-03-05T17:30:28.378Z,99.90
2023-03-05T17:32:52.859Z,99.90
2023-03-05T17:34:57.531Z,99.90
2023-03-05T17:37:00.587Z,99.90
2023-03-05T17:39:03.255Z,99.90
2023-03-05T17:41:05.976Z,99.90
2023-03-05T17:43:08.675Z,99.90
2023-03-05T17:45:12.089Z,99.90
2023-03-05T17:47:17.124Z,99.90
2023-03-05T17:49:19.600Z,99.90
2023-03-05T17:51:22.055Z,99.90
2023-03-05T17:53:24.548Z,99.90
2023-03-05T17:55:27.520Z,99.90
2023-03-05T17:57:29.855Z,99.90
2023-03-05T17:59:32.276Z,99.90
2023-03-05T18:01:35.060Z,99.90
2023-03-05T18:03:40.267Z,99.90
2023-03-05T18:05:42.731Z,99.90
2023-03-05T18:07:45.437Z,99.90
2023-03-05T18:09:47.944Z,99.90
2023-03-05T18:11:52.866Z,99.90
2023-03-05T18:13:56.654Z,99.90
2023-03-05T18:16:00.107Z,99.90
2023-03-05T18:18:03.085Z,99.90
2023-03-05T18:20:10.081Z,99.90
2023-03-05T18:22:12.442Z,99.90
2023-03-05T18:24:15.008Z,99.90
2023-03-05T18:26:19.050Z,99.90
2023-03-05T18:28:21.733Z,99.90
2023-03-05T18:30:24.269Z,99.90
2023-03-05T18:32:26.903Z,99.90
2023-03-05T18:34:30.677Z,99.90
2023-03-05T18:36:35.831Z,99.90
2023-03-05T18:38:38.578Z,99.90
2023-03-05T18:40:42.613Z,99.90
2023-03-05T18:42:44.974Z,99.90
2023-03-05T18:44:47.337Z,99.90
2023-03-05T18:46:49.847Z,99.90
2023-03-05T18:48:52.265Z,99.90
2023-03-05T18:50:55.056Z,99.90
2023-03-05T18:53:00.101Z,99.90
2023-03-05T18:55:02.620Z,99.90
2023-03-05T18:57:05.040Z,99.90
2023-03-05T18:59:07.533Z,99.90
2023-03-05T19:01:10.104Z,99.90
2023-03-05T19:03:12.996Z,99.90
2023-03-05T19:05:16.572Z,99.90
2023-03-05T19:07:19.068Z,99.90
2023-03-05T19:09:41.092Z,99.90
2023-03-05T19:11:43.437Z,99.90
2023-03-05T19:13:49.332Z,99.90
2023-03-05T19:15:52.433Z,99.90
2023-03-05T19:17:56.119Z,99.90
2023-03-05T19:19:59.804Z,99.90
2023-03-05T19:22:12.538Z,99.90
2023-03-05T19:24:15.896Z,99.90
2023-03-05T19:26:20.926Z,99.90
2023-03-05T19:28:27.723Z,99.90
2023-03-05T19:30:31.428Z,99.90
2023-03-05T19:32:34.420Z,99.90
2023-03-05T19:34:38.966Z,99.90
2023-03-05T19:36:41.785Z,99.90
2023-03-05T19:38:44.269Z,99.90
2023-03-05T19:40:47.751Z,99.90
2023-03-05T19:42:52.986Z,99.90
2023-03-05T19:44:55.528Z,99.90
2023-03-05T19:47:01.488Z,99.90
2023-03-05T19:49:04.307Z,99.90
2023-03-05T19:51:10.238Z,99.90
2023-03-05T19:53:12.636Z,99.90
2023-03-05T19:55:15.374Z,99.90
2023-03-05T19:57:17.925Z,99.90
2023-03-05T19:59:23.532Z,99.90
2023-03-05T20:01:27.411Z,99.90
2023-03-05T20:03:29.937Z,99.90
2023-03-05T20:05:32.600Z,99.90
2023-03-05T20:07:39.320Z,99.90
2023-03-05T20:09:53.274Z,99.90
2023-03-05T20:11:57.856Z,99.90
2023-03-05T20:14:00.856Z,99.90
2023-03-05T20:16:12.959Z,99.90
2023-03-05T20:18:15.601Z,99.90
2023-03-05T20:20:19.016Z,99.90
2023-03-05T20:22:21.558Z,99.90
2023-03-05T20:24:24.006Z,99.90
2023-03-05T20:26:27.689Z,99.90
2023-03-05T20:28:30.188Z,99.90
2023-03-05T20:30:32.604Z,99.90
2023-03-05T20:32:37.816Z,99.90
2023-03-05T20:34:41.104Z,99.90
2023-03-05T20:36:44.551Z,99.90
2023-03-05T20:38:47.613Z,99.90
2023-03-05T20:40:52.429Z,99.90
2023-03-05T20:42:55.250Z,99.90
2023-03-05T20:44:57.659Z,99.90
2023-03-05T20:47:12.724Z,99.90
2023-03-05T20:49:18.804Z,99.90
2023-03-05T20:51:33.932Z,99.90
2023-03-05T20:53:36.540Z,99.90
2023-03-05T20:55:39.274Z,99.90
2023-03-05T20:57:45.587Z,99.90
2023-03-05T20:59:48.099Z,99.90
2023-03-05T21:01:50.492Z,99.90
2023-03-05T21:03:53.868Z,99.90
2023-03-05T21:05:58.955Z,99.90
2023-03-05T21:08:04.289Z,99.90
2023-03-05T21:10:07.503Z,99.90
2023-03-05T21:12:15.838Z,99.90
2023-03-05T21:14:18.238Z,99.90
2023-03-05T21:16:23.097Z,99.90
2023-03-05T21:18:31.567Z,99.90
2023-03-05T21:20:39.752Z,99.90
2023-03-05T21:22:44.847Z,99.90
2023-03-05T21:25:12.378Z,99.90
2023-03-05T21:27:14.999Z,99.90
2023-03-05T21:29:17.320Z,99.90
2023-03-05T21:31:26.998Z,99.90
2023-03-05T21:33:30.535Z,99.90
2023-03-05T21:35:54.442Z,99.90
2023-03-05T21:38:20.333Z,99.90
2023-03-05T21:40:23.376Z,99.90
2023-03-05T21:42:25.929Z,99.90
2023-03-05T21:44:28.488Z,99.90
2023-03-05T21:46:31.245Z,99.90
2023-03-05T21:48:33.807Z,99.90
2023-03-05T21:50:39.636Z,99.90
2023-03-05T21:52:42.689Z,99.90
2023-03-05T21:54:47.832Z,99.90
2023-03-05T21:56:50.268Z,99.90
2023-03-05T21:58:53.081Z,99.90
2023-03-05T22:00:55.560Z,99.90
2023-03-05T22:02:58.201Z,99.90
2023-03-05T22:05:00.787Z,99.90
2023-03-05T22:07:03.803Z,99.90
2023-03-05T22:09:13.624Z,99.90
2023-03-05T22:11:19.467Z,99.90
2023-03-05T22:13:26.342Z,99.90
2023-03-05T22:15:28.962Z,99.90
2023-03-05T22:17:31.424Z,99.90
2023-03-05T22:19:33.736Z,99.90
2023-03-05T22:21:36.412Z,99.90
2023-03-05T22:23:47.999Z,99.90
2023-03-05T22:25:56.632Z,99.90
2023-03-05T22:28:02.511Z,99.90
2023-03-05T22:30:06.045Z,99.90
2023-03-05T22:32:08.758Z,99.90
2023-03-05T22:34:11.517Z,99.90
2023-03-05T22:36:15.614Z,99.90
2023-03-05T22:38:18.223Z,99.90
2023-03-05T22:40:21.865Z,99.90
2023-03-05T22:42:24.983Z,99.90
2023-03-05T22:44:31.448Z,99.90
2023-03-05T22:46:34.029Z,99.90
2023-03-05T22:48:50.589Z,99.90
2023-03-05T22:50:55.753Z,99.90
2023-03-05T22:52:58.408Z,99.90
2023-03-05T22:55:03.139Z,99.90
2023-03-05T22:57:05.860Z,99.90
2023-03-05T22:59:08.512Z,99.90
2023-03-05T23:01:15.641Z,99.90
2023-03-05T23:03:18.056Z,99.90
2023-03-05T23:05:20.729Z,99.90
2023-03-05T23:07:24.827Z,99.90
2023-03-05T23:09:27.452Z,99.90
2023-03-05T23:11:29.908Z,99.90
2023-03-05T23:13:32.543Z,99.90
2023-03-05T23:15:37.274Z,99.90
2023-03-05T23:17:42.991Z,99.90
2023-03-05T23:19:45.306Z,99.90
2023-03-05T23:21:47.949Z,99.90
2023-03-05T23:23:50.359Z,99.90
2023-03-05T23:25:53.292Z,99.90
2023-03-05T23:27:57.998Z,99.90
2023-03-05T23:30:21.373Z,99.90
2023-03-05T23:32:28.676Z,99.90
2023-03-05T23:34:33.769Z,99.90
2023-03-05T23:36:37.004Z,99.90
2023-03-05T23:38:57.567Z,99.90
2023-03-05T23:41:07.022Z,99.90
2023-03-05T23:43:24.590Z,99.90
2023-03-05T23:45:28.038Z,99.90
2023-03-05T23:47:30.453Z,99.90
2023-03-05T23:49:39.619Z,99.90
2023-03-05T23:51:42.197Z,99.90
2023-03-05T23:53:44.592Z,99.90
2023-03-05T23:55:47.879Z,99.90
2023-03-05T23:57:51.195Z,99.90
2023-03-05T23:59:53.526Z,99.90
